createdAt,value
2023-02-18T00:01:01.831Z,99220.31
2023-02-18T00:03:30.258Z,99217.03
2023-02-18T00:05:57.699Z,99219.47
2023-02-18T00:08:25.116Z,99222.75
2023-02-18T00:10:53.187Z,99211.81
2023-02-18T00:13:20.478Z,99218.28
2023-02-18T00:15:47.888Z,99218.19
2023-02-18T00:18:16.084Z,99214.47
2023-02-18T00:20:43.401Z,99213.63
2023-02-18T00:23:10.801Z,99210.25
2023-02-18T00:25:38.154Z,99211.81
2023-02-18T00:28:05.610Z,99223.69
2023-02-18T00:30:33.304Z,99224.56
2023-02-18T00:33:00.638Z,99224.66
2023-02-18T00:35:28.032Z,99218.19
2023-02-18T00:37:55.450Z,99220.41
2023-02-18T00:40:22.732Z,99220.84
2023-02-18T00:42:50.071Z,99203.69
2023-02-18T00:45:17.478Z,99204.94
2023-02-18T00:47:44.830Z,99198.41
2023-02-18T00:50:12.318Z,99196.81
2023-02-18T00:52:39.696Z,99199.22
2023-02-18T00:55:08.093Z,99199.31
2023-02-18T00:57:35.451Z,99202.53
2023-02-18T01:00:05.051Z,99212.69
2023-02-18T01:02:32.505Z,99208.88
2023-02-18T01:04:59.945Z,99209.00
2023-02-18T01:07:27.547Z,99213.16
2023-02-18T01:09:54.941Z,99213.97
2023-02-18T01:12:22.229Z,99208.16
2023-02-18T01:14:49.545Z,99202.66
2023-02-18T01:17:16.948Z,99197.34
2023-02-18T01:19:44.364Z,99193.13
2023-02-18T01:22:11.849Z,99188.25
2023-02-18T01:24:39.187Z,99196.81
2023-02-18T01:27:06.524Z,99199.91
2023-02-18T01:29:35.115Z,99198.41
2023-02-18T01:32:02.632Z,99188.78
2023-02-18T01:34:30.027Z,99188.03
2023-02-18T01:36:59.711Z,99195.66
2023-02-18T01:39:27.671Z,99194.69
2023-02-18T01:41:55.134Z,99190.69
2023-02-18T01:44:25.252Z,99190.16
2023-02-18T01:46:52.908Z,99184.88
2023-02-18T01:49:29.082Z,99187.94
2023-02-18T01:52:17.680Z,99187.63
2023-02-18T01:54:54.583Z,99183.06
2023-02-18T01:57:35.757Z,99171.63
2023-02-18T02:00:12.116Z,99179.34
2023-02-18T02:02:49.449Z,99182.84
2023-02-18T02:05:17.109Z,99177.88
2023-02-18T02:07:45.940Z,99185.81
2023-02-18T02:10:14.552Z,99178.31
2023-02-18T02:13:20.301Z,99172.19
2023-02-18T02:15:55.619Z,99164.75
2023-02-18T02:18:37.028Z,99175.22
2023-02-18T02:21:25.358Z,99158.19
2023-02-18T02:24:03.714Z,99167.94
2023-02-18T02:26:49.607Z,99164.84
2023-02-18T02:29:19.751Z,99155.00
2023-02-18T02:31:59.283Z,99162.22
2023-02-18T02:34:45.040Z,99154.91
2023-02-18T02:37:17.956Z,99155.00
2023-02-18T02:40:03.481Z,99152.25
2023-02-18T02:42:51.100Z,99155.84
2023-02-18T02:45:29.624Z,99160.50
2023-02-18T02:48:02.697Z,99156.03
2023-02-18T02:50:46.199Z,99155.66
2023-02-18T02:53:20.284Z,99157.25
2023-02-18T02:55:47.828Z,99150.22
2023-02-18T02:58:19.778Z,99142.41
2023-02-18T03:01:02.638Z,99140.38
2023-02-18T03:03:48.825Z,99142.41
2023-02-18T03:06:43.526Z,99151.38
2023-02-18T03:09:14.181Z,99141.44
2023-02-18T03:12:38.526Z,99139.78
2023-02-18T03:15:24.684Z,99130.94
2023-02-18T03:17:54.684Z,99129.38
2023-02-18T03:20:28.875Z,99125.97
2023-02-18T03:22:58.989Z,99119.84
2023-02-18T03:25:26.901Z,99117.09
2023-02-18T03:27:58.155Z,99114.44
2023-02-18T03:30:31.405Z,99113.38
2023-02-18T03:33:02.058Z,99114.13
2023-02-18T03:35:29.733Z,99116.66
2023-02-18T03:38:04.517Z,99122.91
2023-02-18T03:40:32.167Z,99118.16
2023-02-18T03:43:01.650Z,99117.19
2023-02-18T03:45:29.361Z,99126.63
2023-02-18T03:47:56.864Z,99121.09
2023-02-18T03:50:24.744Z,99114.00
2023-02-18T03:52:52.192Z,99116.78
2023-02-18T03:55:19.623Z,99121.09
2023-02-18T03:57:46.996Z,99117.72
2023-02-18T04:00:14.736Z,99117.53
2023-02-18T04:02:42.679Z,99117.53
2023-02-18T04:05:10.348Z,99123.88
2023-02-18T04:07:37.937Z,99120.59
2023-02-18T04:10:06.455Z,99114.69
2023-02-18T04:12:33.961Z,99113.94
2023-02-18T04:15:01.331Z,99106.19
2023-02-18T04:17:28.789Z,99104.28
2023-02-18T04:19:56.129Z,99106.41
2023-02-18T04:22:23.501Z,99103.75
2023-02-18T04:24:50.864Z,99100.28
2023-02-18T04:27:18.204Z,99101.34
2023-02-18T04:29:45.798Z,99097.63
2023-02-18T04:32:13.196Z,99086.53
2023-02-18T04:34:40.628Z,99090.16
2023-02-18T04:37:07.975Z,99093.63
2023-02-18T04:39:35.462Z,99098.09
2023-02-18T04:42:08.789Z,99098.41
2023-02-18T04:44:37.251Z,99095.09
2023-02-18T04:47:05.872Z,99096.69
2023-02-18T04:49:33.676Z,99095.75
2023-02-18T04:52:01.043Z,99097.75
2023-02-18T04:54:28.430Z,99100.09
2023-02-18T04:56:55.872Z,99104.31
2023-02-18T04:59:23.260Z,99114.38
2023-02-18T05:01:50.768Z,99116.28
2023-02-18T05:04:18.308Z,99107.50
2023-02-18T05:06:45.747Z,99114.69
2023-02-18T05:09:13.390Z,99110.38
2023-02-18T05:11:41.639Z,99122.84
2023-02-18T05:14:09.011Z,99112.16
2023-02-18T05:16:36.617Z,99117.03
2023-02-18T05:19:03.998Z,99119.25
2023-02-18T05:21:31.477Z,99108.97
2023-02-18T05:23:58.923Z,99103.06
2023-02-18T05:26:26.432Z,99103.38
2023-02-18T05:28:53.846Z,99091.13
2023-02-18T05:31:21.268Z,99091.63
2023-02-18T05:33:48.703Z,99089.72
2023-02-18T05:36:16.189Z,99093.97
2023-02-18T05:38:43.592Z,99090.78
2023-02-18T05:41:11.012Z,99095.47
2023-02-18T05:43:56.816Z,99089.84
2023-02-18T05:46:24.470Z,99093.56
2023-02-18T05:48:51.809Z,99105.72
2023-02-18T05:51:19.306Z,99100.44
2023-02-18T05:53:46.608Z,99096.38
2023-02-18T05:56:13.991Z,99095.47
2023-02-18T05:58:41.358Z,99088.78
2023-02-18T06:01:08.830Z,99103.91
2023-02-18T06:03:36.175Z,99087.75
2023-02-18T06:06:03.827Z,99091.22
2023-02-18T06:08:31.220Z,99090.03
2023-02-18T06:10:58.582Z,99090.91
2023-02-18T06:13:25.987Z,99093.34
2023-02-18T06:15:54.099Z,99100.22
2023-02-18T06:18:22.017Z,99104.75
2023-02-18T06:20:49.651Z,99098.72
2023-02-18T06:23:17.203Z,99099.16
2023-02-18T06:25:44.629Z,99101.06
2023-02-18T06:28:11.979Z,99097.13
2023-02-18T06:30:39.375Z,99101.38
2023-02-18T06:33:06.777Z,99116.41
2023-02-18T06:35:35.000Z,99117.25
2023-02-18T06:38:02.480Z,99115.44
2023-02-18T06:40:29.839Z,99099.78
2023-02-18T06:42:57.237Z,99108.91
2023-02-18T06:45:24.580Z,99104.84
2023-02-18T06:47:51.921Z,99110.38
2023-02-18T06:50:19.569Z,99100.75
2023-02-18T06:52:47.031Z,99100.00
2023-02-18T06:55:14.386Z,99090.03
2023-02-18T06:57:41.800Z,99086.56
2023-02-18T07:00:10.410Z,99087.22
2023-02-18T07:02:37.933Z,99088.66
2023-02-18T07:05:05.833Z,99084.88
2023-02-18T07:07:33.278Z,99095.44
2023-02-18T07:10:00.786Z,99096.28
2023-02-18T07:12:28.537Z,99097.47
2023-02-18T07:14:55.844Z,99105.72
2023-02-18T07:17:23.194Z,99109.09
2023-02-18T07:19:50.613Z,99091.31
2023-02-18T07:22:18.186Z,99087.41
2023-02-18T07:24:45.605Z,99078.19
2023-02-18T07:27:13.105Z,99074.47
2023-02-18T07:29:40.527Z,99070.78
2023-02-18T07:32:07.935Z,99066.75
2023-02-18T07:34:35.335Z,99071.47
2023-02-18T07:37:02.843Z,99075.09
2023-02-18T07:39:30.166Z,99068.28
2023-02-18T07:41:57.481Z,99060.34
2023-02-18T07:44:27.587Z,99064.34
2023-02-18T07:46:54.920Z,99058.81
2023-02-18T07:49:22.812Z,99066.00
2023-02-18T07:51:50.780Z,99051.38
2023-02-18T07:54:18.467Z,99057.06
2023-02-18T07:56:46.325Z,99058.16
2023-02-18T07:59:14.198Z,99058.75
2023-02-18T08:01:44.078Z,99061.41
2023-02-18T08:04:12.274Z,99057.69
2023-02-18T08:06:41.618Z,99047.00
2023-02-18T08:09:09.544Z,99055.44
2023-02-18T08:11:36.964Z,99051.94
2023-02-18T08:14:04.388Z,99059.56
2023-02-18T08:16:31.746Z,99057.66
2023-02-18T08:18:59.090Z,99050.94
2023-02-18T08:21:26.837Z,99054.19
2023-02-18T08:23:54.446Z,99055.78
2023-02-18T08:26:21.858Z,99050.88
2023-02-18T08:28:49.705Z,99044.41
2023-02-18T08:31:23.135Z,99051.44
2023-02-18T08:33:50.986Z,99040.03
2023-02-18T08:36:18.751Z,99042.81
2023-02-18T08:38:46.236Z,99032.47
2023-02-18T08:41:14.563Z,99031.16
2023-02-18T08:43:42.677Z,99044.31
2023-02-18T08:46:16.528Z,99038.19
2023-02-18T08:48:52.267Z,99043.59
2023-02-18T08:51:21.777Z,99037.59
2023-02-18T08:53:49.834Z,99032.84
2023-02-18T08:56:17.812Z,99029.34
2023-02-18T08:58:45.487Z,99036.22
2023-02-18T09:01:13.747Z,99029.31
2023-02-18T09:03:41.372Z,99035.47
2023-02-18T09:06:09.379Z,99032.56
2023-02-18T09:08:37.260Z,99027.56
2023-02-18T09:11:05.136Z,99025.09
2023-02-18T09:13:33.426Z,99026.88
2023-02-18T09:16:06.994Z,99026.09
2023-02-18T09:18:37.787Z,99021.38
2023-02-18T09:21:07.016Z,99024.31
2023-02-18T09:23:35.050Z,99018.56
2023-02-18T09:26:06.110Z,99020.03
2023-02-18T09:28:34.196Z,99010.78
2023-02-18T09:31:13.747Z,99009.59
2023-02-18T09:33:45.810Z,99007.03
2023-02-18T09:36:13.975Z,99010.41
2023-02-18T09:38:41.300Z,99010.22
2023-02-18T09:41:28.284Z,99000.50
2023-02-18T09:44:09.706Z,98997.56
2023-02-18T09:46:58.878Z,98992.97
2023-02-18T09:49:28.202Z,98989.19
2023-02-18T09:51:56.641Z,98989.47
2023-02-18T09:54:24.359Z,98991.47
2023-02-18T09:56:52.749Z,98972.31
2023-02-18T09:59:23.218Z,98983.94
2023-02-18T10:01:52.884Z,98991.81
2023-02-18T10:04:30.215Z,98985.16
2023-02-18T10:06:58.110Z,98988.78
2023-02-18T10:09:37.192Z,98981.41
2023-02-18T10:12:17.585Z,98986.69
2023-02-18T10:14:51.991Z,98997.81
2023-02-18T10:17:19.762Z,99009.03
2023-02-18T10:19:48.666Z,99007.63
2023-02-18T10:22:17.349Z,99008.44
2023-02-18T10:24:54.749Z,99005.91
2023-02-18T10:27:42.299Z,99011.22
2023-02-18T10:30:15.638Z,99018.88
2023-02-18T10:32:46.405Z,99011.72
2023-02-18T10:35:22.777Z,99008.38
2023-02-18T10:38:20.790Z,99014.66
2023-02-18T10:40:48.079Z,99013.88
2023-02-18T10:43:23.765Z,99018.06
2023-02-18T10:46:17.889Z,99014.25
2023-02-18T10:48:48.397Z,99009.78
2023-02-18T10:51:19.967Z,98997.63
2023-02-18T10:53:51.327Z,98998.19
2023-02-18T10:56:43.667Z,99012.31
2023-02-18T10:59:19.793Z,99003.53
2023-02-18T11:02:04.182Z,98997.13
2023-02-18T11:04:42.695Z,98992.34
2023-02-18T11:07:14.959Z,98987.19
2023-02-18T11:09:48.153Z,98983.38
2023-02-18T11:12:24.825Z,98984.69
2023-02-18T11:15:24.967Z,98985.59
2023-02-18T11:17:55.417Z,98988.03
2023-02-18T11:20:30.198Z,98977.81
2023-02-18T11:23:07.503Z,98972.19
2023-02-18T11:25:37.025Z,98961.84
2023-02-18T11:28:28.203Z,98963.66
2023-02-18T11:30:58.613Z,98962.38
2023-02-18T11:33:56.671Z,98958.09
2023-02-18T11:36:33.030Z,98961.44
2023-02-18T11:39:08.182Z,98954.97
2023-02-18T11:41:44.418Z,98955.91
2023-02-18T11:44:36.103Z,98963.25
2023-02-18T11:47:04.806Z,98954.50
2023-02-18T11:49:34.779Z,98960.81
2023-02-18T11:52:11.012Z,98960.66
2023-02-18T11:54:38.350Z,98959.22
2023-02-18T11:57:10.105Z,98962.72
2023-02-18T11:59:39.698Z,98954.28
2023-02-18T12:02:27.842Z,98946.69
2023-02-18T12:05:25.180Z,98954.13
2023-02-18T12:08:00.312Z,98958.19
2023-02-18T12:10:43.236Z,98958.19
2023-02-18T12:13:36.783Z,98952.13
2023-02-18T12:16:23.320Z,98949.63
2023-02-18T12:19:10.398Z,98937.88
2023-02-18T12:22:19.832Z,98948.13
2023-02-18T12:25:25.201Z,98932.00
2023-02-18T12:28:29.693Z,98927.00
2023-02-18T12:31:19.067Z,98926.59
2023-02-18T12:34:12.778Z,98917.94
2023-02-18T12:36:46.041Z,98924.34
2023-02-18T12:39:35.978Z,98923.53
2023-02-18T12:42:41.044Z,98919.28
2023-02-18T12:45:27.348Z,98918.94
2023-02-18T12:48:13.293Z,98910.56
2023-02-18T12:50:49.425Z,98913.41
2023-02-18T12:53:16.799Z,98901.41
2023-02-18T12:56:05.544Z,98911.38
2023-02-18T12:58:35.930Z,98896.25
2023-02-18T13:01:35.555Z,98904.38
2023-02-18T13:04:14.908Z,98905.56
2023-02-18T13:07:17.704Z,98886.09
2023-02-18T13:09:54.109Z,98901.78
2023-02-18T13:12:36.250Z,98909.47
2023-02-18T13:15:14.839Z,98911.38
2023-02-18T13:17:43.394Z,98895.78
2023-02-18T13:20:38.639Z,98902.34
2023-02-18T13:23:06.855Z,98900.22
2023-02-18T13:25:37.775Z,98883.41
2023-02-18T13:28:23.869Z,98888.19
2023-02-18T13:31:16.163Z,98885.13
2023-02-18T13:33:52.404Z,98879.91
2023-02-18T13:36:34.708Z,98883.63
2023-02-18T13:39:02.188Z,98875.75
2023-02-18T13:41:30.019Z,98877.53
2023-02-18T13:43:57.499Z,98875.69
2023-02-18T13:46:25.851Z,98872.47
2023-02-18T13:49:13.356Z,98862.94
2023-02-18T13:51:42.121Z,98872.78
2023-02-18T13:54:28.923Z,98866.09
2023-02-18T13:57:03.879Z,98868.03
2023-02-18T13:59:44.939Z,98865.00
2023-02-18T14:02:21.582Z,98855.34
2023-02-18T14:04:56.140Z,98854.19
2023-02-18T14:07:35.924Z,98859.06
2023-02-18T14:10:31.661Z,98846.88
2023-02-18T14:12:59.056Z,98847.44
2023-02-18T14:15:26.481Z,98860.72
2023-02-18T14:18:12.787Z,98845.66
2023-02-18T14:20:40.146Z,98848.81
2023-02-18T14:23:19.199Z,98847.16
2023-02-18T14:26:05.213Z,98848.53
2023-02-18T14:28:38.527Z,98839.63
2023-02-18T14:31:34.258Z,98846.22
2023-02-18T14:34:04.748Z,98848.16
2023-02-18T14:36:49.724Z,98847.59
2023-02-18T14:39:29.352Z,98853.16
2023-02-18T14:42:13.835Z,98841.13
2023-02-18T14:44:54.073Z,98842.22
2023-02-18T14:47:27.273Z,98844.59
2023-02-18T14:49:59.936Z,98837.06
2023-02-18T14:53:05.714Z,98838.31
2023-02-18T14:55:35.848Z,98848.66
2023-02-18T14:58:27.608Z,98846.63
2023-02-18T15:00:55.071Z,98850.53
2023-02-18T15:03:22.713Z,98849.34
2023-02-18T15:05:52.935Z,98847.34
2023-02-18T15:08:25.613Z,98843.34
2023-02-18T15:10:59.149Z,98842.91
2023-02-18T15:13:27.580Z,98838.22
2023-02-18T15:16:08.945Z,98837.78
2023-02-18T15:18:48.705Z,98848.19
2023-02-18T15:21:22.487Z,98849.31
2023-02-18T15:23:49.990Z,98847.97
2023-02-18T15:26:17.492Z,98851.63
2023-02-18T15:29:05.712Z,98845.59
2023-02-18T15:31:38.757Z,98849.22
2023-02-18T15:34:37.768Z,98843.19
2023-02-18T15:37:07.520Z,98842.22
2023-02-18T15:39:38.638Z,98846.09
2023-02-18T15:42:33.613Z,98835.88
2023-02-18T15:45:16.045Z,98830.22
2023-02-18T15:47:44.746Z,98840.94
2023-02-18T15:50:18.733Z,98835.63
2023-02-18T15:52:46.285Z,98835.63
2023-02-18T15:55:29.043Z,98841.91
2023-02-18T15:57:56.848Z,98841.31
2023-02-18T16:00:37.383Z,98841.72
2023-02-18T16:03:15.996Z,98837.63
2023-02-18T16:05:43.518Z,98835.06
2023-02-18T16:08:17.159Z,98840.03
2023-02-18T16:10:47.959Z,98843.66
2023-02-18T16:13:17.373Z,98844.88
2023-02-18T16:15:47.353Z,98850.44
2023-02-18T16:18:39.744Z,98847.78
2023-02-18T16:21:25.964Z,98848.03
2023-02-18T16:23:59.890Z,98847.56
2023-02-18T16:26:42.206Z,98848.75
2023-02-18T16:29:15.149Z,98843.72
2023-02-18T16:31:43.329Z,98841.06
2023-02-18T16:34:10.736Z,98849.13
2023-02-18T16:36:58.033Z,98850.94
2023-02-18T16:39:25.486Z,98842.41
2023-02-18T16:41:52.839Z,98846.00
2023-02-18T16:44:20.192Z,98849.47
2023-02-18T16:46:47.593Z,98863.25
2023-02-18T16:49:15.201Z,98865.06
2023-02-18T16:51:42.868Z,98860.84
2023-02-18T16:54:13.941Z,98862.78
2023-02-18T16:56:41.466Z,98865.63
2023-02-18T16:59:08.854Z,98870.00
2023-02-18T17:01:44.007Z,98873.84
2023-02-18T17:04:13.670Z,98871.19
2023-02-18T17:06:41.516Z,98877.69
2023-02-18T17:09:17.075Z,98880.97
2023-02-18T17:11:45.412Z,98884.06
2023-02-18T17:14:15.355Z,98888.88
2023-02-18T17:16:42.719Z,98889.72
2023-02-18T17:19:10.104Z,98896.94
2023-02-18T17:21:37.493Z,98895.38
2023-02-18T17:24:05.460Z,98906.44
2023-02-18T17:26:32.782Z,98904.28
2023-02-18T17:29:00.892Z,98905.56
2023-02-18T17:31:30.845Z,98921.22
2023-02-18T17:34:01.325Z,98907.84
2023-02-18T17:36:28.711Z,98920.59
2023-02-18T17:38:56.454Z,98907.91
2023-02-18T17:41:23.782Z,98922.59
2023-02-18T17:43:51.137Z,98920.94
2023-02-18T17:46:19.525Z,98916.47
2023-02-18T17:48:47.839Z,98927.19
2023-02-18T17:51:22.199Z,98929.94
2023-02-18T17:53:49.574Z,98927.63
2023-02-18T17:56:16.957Z,98931.03
2023-02-18T17:58:46.359Z,98940.88
2023-02-18T18:01:14.229Z,98944.94
2023-02-18T18:03:41.759Z,98947.16
2023-02-18T18:06:17.062Z,98951.81
2023-02-18T18:08:44.500Z,98946.66
2023-02-18T18:11:18.693Z,98954.59
2023-02-18T18:13:46.609Z,98956.50
2023-02-18T18:16:15.704Z,98958.53
2023-02-18T18:18:43.340Z,98958.75
2023-02-18T18:21:23.598Z,98960.56
2023-02-18T18:23:51.361Z,98963.53
2023-02-18T18:26:18.723Z,98970.97
2023-02-18T18:28:46.067Z,98974.63
2023-02-18T18:31:18.554Z,98964.38
2023-02-18T18:33:51.374Z,98960.47
2023-02-18T18:36:23.956Z,98965.91
2023-02-18T18:38:51.590Z,98960.44
2023-02-18T18:41:21.389Z,98962.03
2023-02-18T18:43:49.589Z,98954.22
2023-02-18T18:46:17.624Z,98948.94
2023-02-18T18:48:45.482Z,98943.88
2023-02-18T18:51:25.123Z,98937.66
2023-02-18T18:53:52.524Z,98942.91
2023-02-18T18:56:19.842Z,98933.16
2023-02-18T18:58:47.482Z,98935.50
2023-02-18T19:01:22.549Z,98933.91
2023-02-18T19:03:50.109Z,98939.06
2023-02-18T19:06:17.914Z,98937.16
2023-02-18T19:08:46.645Z,98938.09
2023-02-18T19:11:14.756Z,98940.94
2023-02-18T19:13:42.279Z,98941.13
2023-02-18T19:16:18.373Z,98937.13
2023-02-18T19:18:46.178Z,98936.47
2023-02-18T19:21:13.659Z,98944.78
2023-02-18T19:23:41.093Z,98944.88
2023-02-18T19:26:09.260Z,98946.59
2023-02-18T19:28:37.110Z,98943.19
2023-02-18T19:31:09.696Z,98938.84
2023-02-18T19:33:39.129Z,98939.81
2023-02-18T19:36:10.882Z,98943.38
2023-02-18T19:38:38.769Z,98940.03
2023-02-18T19:41:14.168Z,98948.97
2023-02-18T19:43:42.786Z,98943.03
2023-02-18T19:46:11.929Z,98949.28
2023-02-18T19:48:39.633Z,98948.53
2023-02-18T19:51:08.395Z,98952.22
2023-02-18T19:53:36.109Z,98954.09
2023-02-18T19:56:07.327Z,98951.47
2023-02-18T19:58:35.471Z,98956.06
2023-02-18T20:01:03.072Z,98955.44
2023-02-18T20:03:30.454Z,98945.84
2023-02-18T20:05:57.846Z,98945.09
2023-02-18T20:08:25.189Z,98953.38
2023-02-18T20:10:59.274Z,98959.41
2023-02-18T20:13:27.107Z,98950.66
2023-02-18T20:15:54.622Z,98952.63
2023-02-18T20:18:21.999Z,98950.75
2023-02-18T20:20:50.546Z,98956.13
2023-02-18T20:23:17.949Z,98953.50
2023-02-18T20:25:47.570Z,98957.06
2023-02-18T20:28:15.126Z,98955.25
2023-02-18T20:30:43.029Z,98954.63
2023-02-18T20:33:10.618Z,98949.34
2023-02-18T20:35:38.165Z,98952.00
2023-02-18T20:38:05.051Z,98951.53
2023-02-18T20:40:32.487Z,98954.91
2023-02-18T20:42:59.458Z,98958.38
2023-02-18T20:45:26.549Z,98952.06
2023-02-18T20:47:53.560Z,98964.72
2023-02-18T20:50:21.789Z,98953.22
2023-02-18T20:52:48.804Z,98960.47
2023-02-18T20:55:15.933Z,98950.03
2023-02-18T20:57:42.976Z,98960.69
2023-02-18T21:00:10.982Z,98958.88
2023-02-18T21:02:38.017Z,98952.09
2023-02-18T21:05:05.709Z,98952.09
2023-02-18T21:07:33.109Z,98953.13
2023-02-18T21:10:00.065Z,98955.88
2023-02-18T21:12:27.058Z,98962.97
2023-02-18T21:14:53.978Z,98953.41
2023-02-18T21:17:22.077Z,98954.44
2023-02-18T21:19:49.029Z,98949.16
2023-02-18T21:22:15.984Z,98954.38
2023-02-18T21:24:43.025Z,98953.53
2023-02-18T21:27:10.734Z,98959.66
2023-02-18T21:29:37.678Z,98958.03
2023-02-18T21:32:05.015Z,98950.94
2023-02-18T21:34:32.074Z,98964.13
2023-02-18T21:36:59.056Z,98959.91
2023-02-18T21:39:26.055Z,98957.06
2023-02-18T21:41:53.081Z,98959.06
2023-02-18T21:44:21.553Z,98963.22
2023-02-18T21:46:51.879Z,98954.53
2023-02-18T21:49:18.816Z,98958.22
2023-02-18T21:51:57.170Z,98955.59
2023-02-18T21:54:30.992Z,98961.97
2023-02-18T21:57:00.061Z,98949.75
2023-02-18T21:59:29.343Z,98943.63
2023-02-18T22:01:59.868Z,98941.84
2023-02-18T22:04:28.959Z,98947.19
2023-02-18T22:06:55.915Z,98950.47
2023-02-18T22:09:23.984Z,98943.63
2023-02-18T22:11:51.617Z,98951.72
2023-02-18T22:14:18.871Z,98949.94
2023-02-18T22:16:46.001Z,98946.66
2023-02-18T22:19:14.841Z,98946.72
2023-02-18T22:21:42.634Z,98932.72
2023-02-18T22:24:12.508Z,98941.38
2023-02-18T22:26:40.105Z,98938.06
2023-02-18T22:29:07.511Z,98929.25
2023-02-18T22:31:34.593Z,98934.59
2023-02-18T22:34:01.633Z,98934.78
2023-02-18T22:36:29.425Z,98932.91
2023-02-18T22:38:58.260Z,98919.81
2023-02-18T22:41:27.357Z,98932.16
2023-02-18T22:43:57.474Z,98932.25
2023-02-18T22:46:25.101Z,98927.84
2023-02-18T22:48:55.316Z,98929.44
2023-02-18T22:51:31.212Z,98919.81
2023-02-18T22:54:00.377Z,98916.72
2023-02-18T22:56:29.622Z,98914.06
2023-02-18T22:58:58.301Z,98919.34
2023-02-18T23:01:33.201Z,98907.22
2023-02-18T23:04:14.488Z,98910.72
2023-02-18T23:06:43.554Z,98905.34
2023-02-18T23:09:20.073Z,98898.47
2023-02-18T23:11:51.223Z,98902.06
2023-02-18T23:14:18.852Z,98895.94
2023-02-18T23:17:12.522Z,98891.31
2023-02-18T23:19:51.488Z,98895.84
2023-02-18T23:22:35.436Z,98888.78
2023-02-18T23:25:02.619Z,98889.81
2023-02-18T23:27:30.311Z,98895.28
2023-02-18T23:29:57.544Z,98889.16
2023-02-18T23:32:24.976Z,98883.69
2023-02-18T23:34:52.528Z,98882.84
2023-02-18T23:37:40.343Z,98883.63
2023-02-18T23:40:09.151Z,98882.84
2023-02-18T23:42:36.134Z,98880.78
2023-02-18T23:45:03.157Z,98880.59
2023-02-18T23:47:30.141Z,98878.44
2023-02-18T23:49:57.067Z,98874.94
2023-02-18T23:52:24.047Z,98874.75
2023-02-18T23:54:51.148Z,98871.28
2023-02-18T23:57:18.069Z,98867.13
2023-02-18T23:59:45.469Z,98873.16
